Time;durP1;ratioP1;P1;durP2;ratioP2;P2;SDS_P1;SDS_P2;PMS_P1;PMS_P2;Temp;Humidity;BMP_temperature;BMP_pressure;BME280_temperature;BME280_humidity;BME280_pressure;Samples;Min_cycle;Max_cycle;Signal;HPM_P1;HPM_P2
2021/05/14 00:00:08;;;;;;;23.03;20.83;;;;;;;;;;5112040;28;20202;-77
2021/05/14 00:02:54;;;;;;;23.77;21.83;;;;;;;;;;5112387;28;20227;-78
2021/05/14 00:05:39;;;;;;;22.90;20.90;;;;;;;;;;5112111;28;20679;-78
2021/05/14 00:08:23;;;;;;;27.38;25.13;;;;;;;;;;5111849;28;20511;-78
2021/05/14 00:11:07;;;;;;;22.73;20.80;;;;;;;;;;5111950;28;20601;-78
2021/05/14 00:13:54;;;;;;;22.53;20.53;;;;;;;;;;5111932;28;20746;-78
2021/05/14 00:16:38;;;;;;;20.37;18.67;;;;;;;;;;5111854;28;20604;-78
2021/05/14 00:19:24;;;;;;;20.80;19.07;;;;;;;;;;5111562;28;20214;-78
2021/05/14 00:22:09;;;;;;;22.90;20.97;;;;;;;;;;5112138;28;20268;-78
2021/05/14 00:24:53;;;;;;;22.73;20.83;;;;;;;;;;5112131;28;20210;-78
2021/05/14 00:27:38;;;;;;;22.60;20.60;;;;;;;;;;5112212;28;20606;-78
2021/05/14 00:30:22;;;;;;;23.93;22.03;;;;;;;;;;5111173;28;20261;-78
2021/05/14 00:33:06;;;;;;;23.00;21.10;;;;;;;;;;5111942;28;20612;-78
2021/05/14 00:35:52;;;;;;;24.10;22.10;;;;;;;;;;5111539;28;20231;-78
2021/05/14 00:38:36;;;;;;;25.53;23.33;;;;;;;;;;5112205;28;20334;-78
2021/05/14 00:41:20;;;;;;;31.40;28.85;;;;;;;;;;5111015;28;20455;-78
2021/05/14 00:44:24;;;;;;;29.67;26.90;;;;;;;;;;5111699;28;20202;-78
2021/05/14 00:47:09;;;;;;;28.43;25.90;;;;;;;;;;5111534;28;20199;-78
2021/05/14 00:49:54;;;;;;;31.30;28.30;;;;;;;;;;5110823;28;20215;-77
2021/05/14 00:52:39;;;;;;;30.40;27.80;;;;;;;;;;5111538;28;20211;-78
2021/05/14 00:55:23;;;;;;;30.40;27.67;;;;;;;;;;5111414;28;20705;-77
2021/05/14 00:58:08;;;;;;;47.40;43.00;;;;;;;;;;5110783;28;20422;-78
2021/05/14 01:00:52;;;;;;;38.73;34.77;;;;;;;;;;5110653;28;20422;-78
2021/05/14 01:03:37;;;;;;;33.00;30.00;;;;;;;;;;5111410;28;20219;-78
2021/05/14 01:06:21;;;;;;;36.43;33.13;;;;;;;;;;5111448;28;20260;-78
2021/05/14 01:09:07;;;;;;;37.00;33.43;;;;;;;;;;5111220;28;20203;-77
2021/05/14 01:11:52;;;;;;;35.27;32.07;;;;;;;;;;5111273;28;20222;-78
2021/05/14 01:14:36;;;;;;;35.93;32.57;;;;;;;;;;5111095;28;20232;-78
2021/05/14 01:17:21;;;;;;;33.83;30.60;;;;;;;;;;5111217;28;20222;-78
2021/05/14 01:20:06;;;;;;;35.20;32.10;;;;;;;;;;5110784;28;20723;-78
2021/05/14 01:22:51;;;;;;;37.53;33.93;;;;;;;;;;5111086;28;20222;-78
2021/05/14 01:25:36;;;;;;;37.33;33.83;;;;;;;;;;5111779;28;20195;-78
2021/05/14 01:28:20;;;;;;;35.93;32.73;;;;;;;;;;5111433;28;20704;-78
2021/05/14 01:31:05;;;;;;;42.72;39.05;;;;;;;;;;5109961;28;20412;-78
2021/05/14 01:33:49;;;;;;;37.07;33.50;;;;;;;;;;5111277;28;20199;-77
2021/05/14 01:36:34;;;;;;;35.07;31.90;;;;;;;;;;5110907;28;20312;-78
2021/05/14 01:39:22;;;;;;;34.87;31.57;;;;;;;;;;5110841;28;20198;-78
2021/05/14 01:42:07;;;;;;;32.70;29.37;;;;;;;;;;5111014;28;20337;-78
2021/05/14 01:44:51;;;;;;;32.40;29.60;;;;;;;;;;5110933;28;20492;-78
2021/05/14 01:47:36;;;;;;;29.73;27.13;;;;;;;;;;5111334;28;20385;-78
2021/05/14 01:50:20;;;;;;;33.00;29.70;;;;;;;;;;5110515;28;20190;-78
2021/05/14 01:53:05;;;;;;;33.67;30.27;;;;;;;;;;5110868;28;20303;-78
2021/05/14 01:55:50;;;;;;;31.80;28.67;;;;;;;;;;5110752;28;20234;-78
2021/05/14 01:58:35;;;;;;;29.93;27.27;;;;;;;;;;5110909;28;20203;-78
2021/05/14 02:01:20;;;;;;;30.67;27.87;;;;;;;;;;5110933;28;20234;-78
2021/05/14 02:04:04;;;;;;;30.57;27.60;;;;;;;;;;5114697;28;20261;-78
2021/05/14 02:06:49;;;;;;;30.93;27.97;;;;;;;;;;5114763;28;20571;-78
2021/05/14 02:09:33;;;;;;;30.40;27.30;;;;;;;;;;5114182;28;20670;-78
2021/05/14 02:12:19;;;;;;;29.97;27.07;;;;;;;;;;5114468;28;20227;-78
2021/05/14 02:15:05;;;;;;;29.07;26.40;;;;;;;;;;5114380;28;20287;-78
2021/05/14 02:17:49;;;;;;;30.37;27.53;;;;;;;;;;5114263;28;20249;-78
2021/05/14 02:20:34;;;;;;;31.63;28.60;;;;;;;;;;5114087;28;20199;-78
2021/05/14 02:23:18;;;;;;;32.67;29.50;;;;;;;;;;5114463;28;20245;-78
2021/05/14 02:26:03;;;;;;;33.93;30.37;;;;;;;;;;5114636;28;20199;-77
2021/05/14 02:28:48;;;;;;;33.40;30.00;;;;;;;;;;5114550;28;20252;-78
2021/05/14 02:31:32;;;;;;;33.87;30.57;;;;;;;;;;5113990;28;20218;-78
2021/05/14 02:34:17;;;;;;;41.83;37.95;;;;;;;;;;5113367;28;20404;-78
2021/05/14 02:37:02;;;;;;;34.70;31.23;;;;;;;;;;5114124;28;20248;-78
2021/05/14 02:39:46;;;;;;;34.03;30.80;;;;;;;;;;5113669;28;20711;-78
2021/05/14 02:42:31;;;;;;;32.77;29.87;;;;;;;;;;5113856;28;20227;-78
2021/05/14 02:45:16;;;;;;;37.20;32.97;;;;;;;;;;5113884;28;20685;-78
2021/05/14 02:48:00;;;;;;;35.07;31.87;;;;;;;;;;5113972;28;20626;-78
2021/05/14 02:50:45;;;;;;;35.97;32.43;;;;;;;;;;5113343;28;20309;-78
2021/05/14 02:53:29;;;;;;;32.07;29.00;;;;;;;;;;5113892;28;20700;-78
2021/05/14 02:56:14;;;;;;;36.30;32.40;;;;;;;;;;5113496;28;20232;-78
2021/05/14 02:58:59;;;;;;;34.03;30.80;;;;;;;;;;5113797;28;20697;-78
2021/05/14 03:01:44;;;;;;;35.30;31.90;;;;;;;;;;5113599;28;20278;-78
2021/05/14 03:04:28;;;;;;;37.63;33.63;;;;;;;;;;5113490;28;20199;-78
2021/05/14 03:07:13;;;;;;;41.65;37.83;;;;;;;;;;5112811;28;20469;-78
2021/05/14 03:09:58;;;;;;;40.57;36.60;;;;;;;;;;5112982;28;20207;-78
2021/05/14 03:12:42;;;;;;;37.77;33.87;;;;;;;;;;5113193;28;20226;-78
2021/05/14 03:15:27;;;;;;;33.70;30.50;;;;;;;;;;5113091;28;20226;-78
2021/05/14 03:18:12;;;;;;;38.07;33.73;;;;;;;;;;5113496;28;20308;-78
2021/05/14 03:20:56;;;;;;;39.57;35.43;;;;;;;;;;5112838;28;20226;-78
2021/05/14 03:23:41;;;;;;;53.63;48.25;;;;;;;;;;5111682;28;20424;-78
2021/05/14 03:26:25;;;;;;;43.17;38.80;;;;;;;;;;5113670;28;20203;-78
2021/05/14 03:29:10;;;;;;;38.53;34.73;;;;;;;;;;5113111;28;20249;-78
2021/05/14 03:31:54;;;;;;;36.90;33.27;;;;;;;;;;5112912;28;20707;-78
2021/05/14 03:34:40;;;;;;;36.47;33.00;;;;;;;;;;5113004;28;20689;-78
2021/05/14 03:37:24;;;;;;;36.27;32.77;;;;;;;;;;5112069;28;20642;-78
2021/05/14 03:40:17;;;;;;;37.30;33.50;;;;;;;;;;5110746;28;20572;-78
2021/05/14 03:43:03;;;;;;;35.30;31.90;;;;;;;;;;5112696;28;20227;-78
2021/05/14 03:45:47;;;;;;;35.63;32.13;;;;;;;;;;5112841;28;20609;-78
2021/05/14 03:48:32;;;;;;;38.40;34.47;;;;;;;;;;5112879;28;20617;-78
2021/05/14 03:51:17;;;;;;;38.70;34.83;;;;;;;;;;5112117;28;20270;-78
2021/05/14 03:54:02;;;;;;;37.23;33.43;;;;;;;;;;5112672;28;20248;-78
2021/05/14 03:56:48;;;;;;;38.07;34.13;;;;;;;;;;5112374;28;20233;-78
2021/05/14 03:59:32;;;;;;;37.07;33.57;;;;;;;;;;5112097;28;20296;-78
2021/05/14 04:02:16;;;;;;;37.33;33.63;;;;;;;;;;5112226;28;20229;-78
2021/05/14 04:05:01;;;;;;;38.67;34.77;;;;;;;;;;5112349;28;20218;-78
2021/05/14 04:07:48;;;;;;;38.37;34.40;;;;;;;;;;5104491;28;20287;-78
2021/05/14 04:10:46;;;;;;;37.60;33.90;;;;;;;;;;5105732;28;20300;-77
2021/05/14 04:16:33;;;;;;;39.40;35.47;;;;;;;;;;5107607;28;20346;-76
2021/05/14 04:19:18;;;;;;;39.63;35.43;;;;;;;;;;5099099;28;20218;-80
2021/05/14 04:22:04;;;;;;;36.37;32.87;;;;;;;;;;5105277;28;20758;-80
2021/05/14 04:24:50;;;;;;;37.30;33.37;;;;;;;;;;5108385;28;20199;-79
2021/05/14 04:27:34;;;;;;;38.07;34.33;;;;;;;;;;5091582;28;20712;-80
2021/05/14 04:30:19;;;;;;;35.97;32.07;;;;;;;;;;5090888;28;20237;-79
2021/05/14 04:33:04;;;;;;;33.30;29.77;;;;;;;;;;5091416;28;20246;-80
2021/05/14 04:35:49;;;;;;;34.13;30.63;;;;;;;;;;5091509;28;20596;-80
2021/05/14 04:38:33;;;;;;;33.73;30.17;;;;;;;;;;5096187;28;20210;-80
2021/05/14 04:41:19;;;;;;;33.60;29.70;;;;;;;;;;5099069;28;20246;-80
2021/05/14 04:44:04;;;;;;;32.33;28.93;;;;;;;;;;5091346;28;20260;-80
2021/05/14 04:46:48;;;;;;;31.98;28.60;;;;;;;;;;5093415;28;20469;-79
2021/05/14 04:49:33;;;;;;;30.93;27.80;;;;;;;;;;5100677;28;20248;-80
2021/05/14 04:52:19;;;;;;;34.40;29.50;;;;;;;;;;5111621;28;20295;-79
2021/05/14 04:55:05;;;;;;;30.10;26.93;;;;;;;;;;5111696;28;20318;-80
2021/05/14 04:57:50;;;;;;;29.40;26.27;;;;;;;;;;5111477;28;20224;-80
2021/05/14 05:00:34;;;;;;;30.17;27.17;;;;;;;;;;5111105;28;20256;-80
2021/05/14 05:03:19;;;;;;;35.63;31.95;;;;;;;;;;5110687;28;20440;-80
2021/05/14 05:06:03;;;;;;;32.17;28.70;;;;;;;;;;5111383;28;20693;-80
2021/05/14 05:08:48;;;;;;;32.50;28.30;;;;;;;;;;5111348;28;20731;-80
2021/05/14 05:11:32;;;;;;;31.03;27.47;;;;;;;;;;5110857;28;20245;-80
2021/05/14 05:14:17;;;;;;;36.40;29.17;;;;;;;;;;5110926;28;20691;-80
2021/05/14 05:17:02;;;;;;;33.50;28.93;;;;;;;;;;5111019;28;20313;-77
2021/05/14 05:19:47;;;;;;;32.67;28.10;;;;;;;;;;5110724;28;20564;-80
2021/05/14 05:22:31;;;;;;;31.27;27.97;;;;;;;;;;5111167;28;20254;-80
2021/05/14 05:25:17;;;;;;;31.40;27.83;;;;;;;;;;5110973;28;20795;-79
2021/05/14 05:28:03;;;;;;;28.37;25.47;;;;;;;;;;5111223;28;20206;-79
2021/05/14 05:30:48;;;;;;;29.87;26.77;;;;;;;;;;5110724;28;20198;-79
2021/05/14 05:33:33;;;;;;;32.00;28.03;;;;;;;;;;5111046;28;20704;-78
2021/05/14 05:36:18;;;;;;;32.23;27.20;;;;;;;;;;5111381;28;20256;-79
2021/05/14 05:39:03;;;;;;;30.37;27.17;;;;;;;;;;5115316;28;20201;-79
2021/05/14 05:41:47;;;;;;;31.07;27.80;;;;;;;;;;5115223;28;20272;-79
2021/05/14 05:44:32;;;;;;;33.77;29.03;;;;;;;;;;5115690;28;20256;-79
2021/05/14 05:47:17;;;;;;;31.10;27.80;;;;;;;;;;5115345;28;20206;-79
2021/05/14 05:50:03;;;;;;;31.30;27.03;;;;;;;;;;5114334;28;20296;-79
2021/05/14 05:52:48;;;;;;;38.03;34.05;;;;;;;;;;5113526;28;20492;-79
2021/05/14 05:55:32;;;;;;;34.50;29.93;;;;;;;;;;5114782;28;20225;-79
2021/05/14 05:58:17;;;;;;;31.07;27.77;;;;;;;;;;5115023;28;20194;-79
2021/05/14 06:01:02;;;;;;;31.20;28.10;;;;;;;;;;5114304;28;20303;-79
2021/05/14 06:03:48;;;;;;;32.40;28.93;;;;;;;;;;5114794;28;20215;-79
2021/05/14 06:06:32;;;;;;;32.60;28.33;;;;;;;;;;5114748;28;20571;-79
2021/05/14 06:09:17;;;;;;;29.77;26.70;;;;;;;;;;5113920;28;20229;-79
2021/05/14 06:12:01;;;;;;;31.47;27.23;;;;;;;;;;5114491;28;20231;-79
2021/05/14 06:14:46;;;;;;;31.77;27.43;;;;;;;;;;5114501;28;20575;-79
2021/05/14 06:17:30;;;;;;;28.53;25.57;;;;;;;;;;5114630;28;20260;-79
2021/05/14 06:20:19;;;;;;;30.20;26.40;;;;;;;;;;5103847;28;20279;-79
2021/05/14 06:23:03;;;;;;;27.00;24.23;;;;;;;;;;5110085;28;20206;-77
2021/05/14 06:25:47;;;;;;;27.67;25.00;;;;;;;;;;5104488;28;20666;-75
2021/05/14 06:28:34;;;;;;;26.67;24.07;;;;;;;;;;5100745;28;20341;-77
2021/05/14 06:31:18;;;;;;;27.10;24.40;;;;;;;;;;5093550;28;20251;-76
2021/05/14 06:34:03;;;;;;;26.37;23.97;;;;;;;;;;5093853;28;20206;-76
2021/05/14 06:36:48;;;;;;;27.87;24.57;;;;;;;;;;5093324;28;20226;-77
2021/05/14 06:39:33;;;;;;;26.08;23.70;;;;;;;;;;5093112;28;20135;-74
2021/05/14 06:42:18;;;;;;;26.97;24.47;;;;;;;;;;5110661;28;20219;-75
2021/05/14 06:45:03;;;;;;;27.37;24.47;;;;;;;;;;5113749;28;20611;-74
2021/05/14 06:47:47;;;;;;;26.03;23.63;;;;;;;;;;5113423;28;20677;-74
2021/05/14 06:50:32;;;;;;;25.13;22.93;;;;;;;;;;5113149;28;20211;-72
2021/05/14 06:53:17;;;;;;;25.97;23.40;;;;;;;;;;5108237;28;20200;-76
2021/05/14 06:56:02;;;;;;;24.70;22.40;;;;;;;;;;5092878;28;20307;-74
2021/05/14 06:58:47;;;;;;;22.93;20.73;;;;;;;;;;5093192;28;20609;-75
2021/05/14 07:01:31;;;;;;;24.10;21.83;;;;;;;;;;5092612;28;20222;-75
2021/05/14 07:04:16;;;;;;;25.60;23.07;;;;;;;;;;5092891;28;20294;-74
2021/05/14 07:07:01;;;;;;;26.97;24.43;;;;;;;;;;5092977;28;20346;-73
2021/05/14 07:09:46;;;;;;;25.63;22.90;;;;;;;;;;5092549;28;20304;-73
2021/05/14 07:12:31;;;;;;;27.13;24.53;;;;;;;;;;5092940;28;20594;-76
2021/05/14 07:15:15;;;;;;;32.05;29.25;;;;;;;;;;5091503;28;20418;-74
2021/05/14 07:18:00;;;;;;;27.10;24.60;;;;;;;;;;5093002;28;20195;-75
2021/05/14 07:20:44;;;;;;;27.70;25.03;;;;;;;;;;5092151;28;20266;-77
2021/05/14 07:23:30;;;;;;;29.27;26.53;;;;;;;;;;5092613;28;20226;-76
2021/05/14 07:26:16;;;;;;;26.73;24.23;;;;;;;;;;5092810;28;20231;-76
2021/05/14 07:29:02;;;;;;;27.20;24.47;;;;;;;;;;5092360;28;20215;-75
2021/05/14 07:31:47;;;;;;;31.83;29.17;;;;;;;;;;5091343;28;20445;-76
2021/05/14 07:34:32;;;;;;;27.27;24.80;;;;;;;;;;5092398;28;20670;-75
2021/05/14 07:37:16;;;;;;;27.33;24.93;;;;;;;;;;5092154;28;20312;-74
2021/05/14 07:40:01;;;;;;;27.97;25.43;;;;;;;;;;5092005;28;20254;-77
2021/05/14 07:42:46;;;;;;;28.20;25.60;;;;;;;;;;5092301;28;20208;-75
2021/05/14 07:45:31;;;;;;;25.93;23.50;;;;;;;;;;5092284;28;20199;-75
2021/05/14 07:48:20;;;;;;;29.33;26.63;;;;;;;;;;5092042;28;20277;-75
2021/05/14 07:51:05;;;;;;;30.40;27.40;;;;;;;;;;5091409;28;20294;-75
2021/05/14 07:53:49;;;;;;;28.33;25.63;;;;;;;;;;5092226;28;20235;-75
2021/05/14 07:56:34;;;;;;;30.03;27.07;;;;;;;;;;5091986;28;20362;-76
2021/05/14 07:59:20;;;;;;;29.60;26.70;;;;;;;;;;5090702;28;20196;-76
2021/05/14 08:02:05;;;;;;;30.57;27.50;;;;;;;;;;5092065;28;20278;-79
2021/05/14 08:04:49;;;;;;;30.27;27.30;;;;;;;;;;5091965;28;20667;-78
2021/05/14 08:07:34;;;;;;;30.47;27.47;;;;;;;;;;5092210;28;20223;-78
2021/05/14 08:10:18;;;;;;;31.20;28.20;;;;;;;;;;5091190;28;20279;-80
2021/05/14 08:13:03;;;;;;;31.33;28.33;;;;;;;;;;5092031;28;20200;-81
2021/05/14 08:15:48;;;;;;;31.33;28.23;;;;;;;;;;5091442;28;20305;-80
2021/05/14 08:18:33;;;;;;;34.33;30.93;;;;;;;;;;5091168;28;20409;-80
2021/05/14 08:21:17;;;;;;;31.47;28.43;;;;;;;;;;5090602;28;20440;-80
2021/05/14 08:24:02;;;;;;;30.77;27.87;;;;;;;;;;5091680;28;20249;-79
2021/05/14 08:26:46;;;;;;;31.07;28.00;;;;;;;;;;5091592;28;20555;-79
2021/05/14 08:29:31;;;;;;;32.27;29.20;;;;;;;;;;5111499;28;20441;-77
2021/05/14 08:32:16;;;;;;;30.53;27.73;;;;;;;;;;5112326;28;20412;-78
2021/05/14 08:35:00;;;;;;;29.07;26.27;;;;;;;;;;5111584;28;20278;-80
2021/05/14 08:37:47;;;;;;;29.77;26.97;;;;;;;;;;5112035;28;20191;-78
2021/05/14 08:40:32;;;;;;;31.00;28.13;;;;;;;;;;5101956;28;20294;-79
2021/05/14 08:43:17;;;;;;;31.23;28.20;;;;;;;;;;5091758;28;20208;-79
2021/05/14 08:46:02;;;;;;;30.60;27.90;;;;;;;;;;5091515;28;20196;-79
2021/05/14 08:48:47;;;;;;;31.10;28.20;;;;;;;;;;5091701;28;20212;-77
2021/05/14 08:51:32;;;;;;;29.00;26.40;;;;;;;;;;5091202;28;20887;-76
2021/05/14 08:54:16;;;;;;;30.47;27.53;;;;;;;;;;5091192;28;20208;-78
2021/05/14 08:57:01;;;;;;;28.57;25.80;;;;;;;;;;5091388;28;20231;-75
2021/05/14 08:59:45;;;;;;;30.17;27.37;;;;;;;;;;5091169;28;20606;-78
2021/05/14 09:02:32;;;;;;;30.23;27.23;;;;;;;;;;5092319;28;20236;-77
2021/05/14 09:05:20;;;;;;;28.87;26.27;;;;;;;;;;5092120;28;20198;-81
2021/05/14 09:08:05;;;;;;;30.03;27.23;;;;;;;;;;5091554;28;20200;-80
2021/05/14 09:10:50;;;;;;;31.33;28.53;;;;;;;;;;5091877;28;20701;-77
2021/05/14 09:13:35;;;;;;;30.30;27.63;;;;;;;;;;5099895;28;20212;-75
2021/05/14 09:16:36;;;;;;;29.53;26.70;;;;;;;;;;5090836;28;20273;-77
2021/05/14 09:19:29;;;;;;;31.00;28.13;;;;;;;;;;5090805;28;20233;-76
2021/05/14 09:22:16;;;;;;;29.50;26.77;;;;;;;;;;5091291;28;20280;-76
2021/05/14 09:25:02;;;;;;;31.07;28.07;;;;;;;;;;5091296;28;20203;-77
2021/05/14 09:27:47;;;;;;;29.50;26.83;;;;;;;;;;5095333;28;20203;-80
2021/05/14 09:30:32;;;;;;;30.77;28.00;;;;;;;;;;5110947;28;20237;-78
2021/05/14 09:33:25;;;;;;;28.97;26.40;;;;;;;;;;5111509;28;20250;-79
2021/05/14 09:36:10;;;;;;;31.60;28.67;;;;;;;;;;5110943;28;20230;-78
2021/05/14 09:38:56;;;;;;;29.60;27.00;;;;;;;;;;5111029;28;20660;-76
2021/05/14 09:41:41;;;;;;;33.17;30.37;;;;;;;;;;5109609;28;20431;-76
2021/05/14 09:44:26;;;;;;;29.90;27.30;;;;;;;;;;5109900;28;21394;-75
2021/05/14 09:47:10;;;;;;;30.93;28.03;;;;;;;;;;5090769;28;20472;-75
2021/05/14 09:49:55;;;;;;;28.40;25.57;;;;;;;;;;5089911;28;20196;-76
2021/05/14 09:52:39;;;;;;;30.37;27.37;;;;;;;;;;5090745;28;20266;-74
2021/05/14 09:55:24;;;;;;;28.47;25.87;;;;;;;;;;5090524;28;20204;-74
2021/05/14 09:58:10;;;;;;;32.95;30.13;;;;;;;;;;5089150;28;20421;-76
2021/05/14 10:00:55;;;;;;;30.20;27.63;;;;;;;;;;5089746;28;20251;-77
2021/05/14 10:03:40;;;;;;;30.00;27.10;;;;;;;;;;5090642;28;20208;-77
2021/05/14 10:06:25;;;;;;;30.97;28.13;;;;;;;;;;5090382;28;20230;-77
2021/05/14 10:09:17;;;;;;;29.50;26.80;;;;;;;;;;5090569;28;20219;-77
2021/05/14 10:12:06;;;;;;;30.43;27.63;;;;;;;;;;5090239;28;20223;-77
2021/05/14 10:14:51;;;;;;;29.80;27.00;;;;;;;;;;5090574;28;20220;-77
2021/05/14 10:17:36;;;;;;;29.93;27.17;;;;;;;;;;5090011;28;20232;-77
2021/05/14 10:20:22;;;;;;;32.07;29.23;;;;;;;;;;5105870;28;20235;-77
2021/05/14 10:23:07;;;;;;;32.27;29.27;;;;;;;;;;5112176;28;20225;-79
2021/05/14 10:25:53;;;;;;;30.60;27.90;;;;;;;;;;5114253;28;20564;-78
2021/05/14 10:28:39;;;;;;;31.00;28.30;;;;;;;;;;5114253;28;20599;-78
2021/05/14 10:31:24;;;;;;;29.87;27.13;;;;;;;;;;5113533;28;20215;-76
2021/05/14 10:34:12;;;;;;;28.53;26.03;;;;;;;;;;5113960;28;20242;-75
2021/05/14 10:36:57;;;;;;;27.97;25.47;;;;;;;;;;5113896;28;20276;-77
2021/05/14 10:39:42;;;;;;;28.80;26.20;;;;;;;;;;5113730;28;20191;-79
2021/05/14 10:42:37;;;;;;;26.90;24.53;;;;;;;;;;5114275;28;20261;-76
2021/05/14 10:45:34;;;;;;;31.95;29.25;;;;;;;;;;5113307;28;20403;-76
2021/05/14 10:48:19;;;;;;;28.50;25.90;;;;;;;;;;5114572;28;20203;-76
2021/05/14 10:51:06;;;;;;;26.37;24.23;;;;;;;;;;5113407;28;20721;-76
2021/05/14 10:53:50;;;;;;;24.57;22.57;;;;;;;;;;5113736;28;20269;-76
2021/05/14 10:56:48;;;;;;;25.00;22.60;;;;;;;;;;5114075;28;20230;-76
2021/05/14 10:59:34;;;;;;;23.53;21.47;;;;;;;;;;5113226;28;20195;-76
2021/05/14 11:02:29;;;;;;;25.40;23.30;;;;;;;;;;5113494;28;20207;-76
2021/05/14 11:05:27;;;;;;;23.83;21.70;;;;;;;;;;5113623;28;20195;-76
2021/05/14 11:08:12;;;;;;;23.27;20.97;;;;;;;;;;5113385;28;20735;-76
2021/05/14 11:10:59;;;;;;;24.00;21.70;;;;;;;;;;5113076;28;20218;-76
2021/05/14 11:13:46;;;;;;;22.77;20.77;;;;;;;;;;5113673;28;20609;-76
2021/05/14 11:16:34;;;;;;;22.13;20.23;;;;;;;;;;5113821;28;20242;-76
2021/05/14 11:19:21;;;;;;;21.30;19.60;;;;;;;;;;5105157;28;20880;-76
2021/05/14 11:22:11;;;;;;;20.77;18.90;;;;;;;;;;5093066;28;20296;-76
2021/05/14 11:25:02;;;;;;;19.17;17.57;;;;;;;;;;5092796;28;20254;-77
2021/05/14 11:27:50;;;;;;;20.30;18.60;;;;;;;;;;5092788;28;20257;-76
2021/05/14 11:30:35;;;;;;;20.60;18.87;;;;;;;;;;5091924;28;20223;-77
2021/05/14 11:33:24;;;;;;;21.02;19.23;;;;;;;;;;5093091;28;20421;-76
2021/05/14 11:36:09;;;;;;;19.57;17.90;;;;;;;;;;5111236;28;20211;-75
2021/05/14 11:38:54;;;;;;;19.33;17.73;;;;;;;;;;5111272;28;20688;-79
2021/05/14 11:41:38;;;;;;;19.47;17.67;;;;;;;;;;5111030;28;20276;-76
2021/05/14 11:44:23;;;;;;;17.57;16.13;;;;;;;;;;5112787;28;20227;-79
2021/05/14 11:47:07;;;;;;;17.73;16.23;;;;;;;;;;5108899;28;20280;-73
2021/05/14 11:49:52;;;;;;;20.10;18.50;;;;;;;;;;5109661;28;20304;-72
2021/05/14 11:52:39;;;;;;;19.67;18.07;;;;;;;;;;5112665;28;20237;-75
2021/05/14 11:55:24;;;;;;;17.97;16.47;;;;;;;;;;5112536;28;20195;-74
2021/05/14 11:58:08;;;;;;;19.30;17.70;;;;;;;;;;5109643;28;20253;-77
2021/05/14 12:00:53;;;;;;;17.57;16.03;;;;;;;;;;5091609;28;20224;-74
2021/05/14 12:03:38;;;;;;;17.43;16.03;;;;;;;;;;5092247;28;20224;-76
2021/05/14 12:06:22;;;;;;;14.97;13.70;;;;;;;;;;5092592;28;20207;-77
2021/05/14 12:09:12;;;;;;;13.47;12.27;;;;;;;;;;5104478;28;20222;-79
2021/05/14 12:11:56;;;;;;;14.50;13.30;;;;;;;;;;5112602;28;20670;-77
2021/05/14 12:14:41;;;;;;;13.23;12.10;;;;;;;;;;5110314;28;20265;-76
2021/05/14 12:17:25;;;;;;;14.53;13.13;;;;;;;;;;5093026;28;20277;-74
2021/05/14 12:20:31;;;;;;;13.17;12.17;;;;;;;;;;5109200;28;20219;-76
2021/05/14 12:23:15;;;;;;;13.13;12.03;;;;;;;;;;5102398;28;20218;-75
2021/05/14 12:26:01;;;;;;;13.00;11.83;;;;;;;;;;5103025;28;20797;-77
2021/05/14 12:28:46;;;;;;;11.13;10.30;;;;;;;;;;5103785;28;20295;-74
2021/05/14 12:31:31;;;;;;;11.40;10.43;;;;;;;;;;5109810;28;20418;-74
2021/05/14 12:34:15;;;;;;;11.90;10.90;;;;;;;;;;5105824;28;20674;-77
2021/05/14 12:37:00;;;;;;;11.80;10.80;;;;;;;;;;5099193;28;20322;-71
2021/05/14 12:39:47;;;;;;;12.50;11.30;;;;;;;;;;5104371;28;20776;-77
2021/05/14 12:42:34;;;;;;;12.63;11.43;;;;;;;;;;5097232;28;20218;-77
2021/05/14 12:45:20;;;;;;;12.30;11.30;;;;;;;;;;5091054;28;20207;-76
2021/05/14 12:48:06;;;;;;;11.33;10.43;;;;;;;;;;5091190;28;20568;-76
2021/05/14 12:50:55;;;;;;;12.13;11.13;;;;;;;;;;5090722;28;20262;-76
2021/05/14 12:53:39;;;;;;;11.03;10.13;;;;;;;;;;5091267;28;20716;-76
2021/05/14 12:56:26;;;;;;;12.13;11.10;;;;;;;;;;5090875;28;20220;-76
2021/05/14 12:59:11;;;;;;;11.83;10.83;;;;;;;;;;5090781;28;20333;-76
2021/05/14 13:01:56;;;;;;;12.97;11.97;;;;;;;;;;5091138;28;20204;-76
2021/05/14 13:04:40;;;;;;;13.03;11.83;;;;;;;;;;5091076;28;20397;-76
2021/05/14 13:07:25;;;;;;;12.63;11.47;;;;;;;;;;5091032;28;20728;-76
2021/05/14 13:10:10;;;;;;;13.57;12.50;;;;;;;;;;5089508;28;20915;-76
2021/05/14 13:12:54;;;;;;;12.33;11.40;;;;;;;;;;5091041;28;20200;-76
2021/05/14 13:15:39;;;;;;;11.17;10.27;;;;;;;;;;5090797;28;20338;-77
2021/05/14 13:18:24;;;;;;;10.80;9.80;;;;;;;;;;5091571;28;20705;-76
2021/05/14 13:21:09;;;;;;;11.47;10.47;;;;;;;;;;5090336;28;20717;-77
2021/05/14 13:23:54;;;;;;;9.10;8.40;;;;;;;;;;5094910;28;20204;-75
2021/05/14 13:26:38;;;;;;;11.27;10.27;;;;;;;;;;5103418;28;20206;-76
2021/05/14 13:29:23;;;;;;;10.70;9.80;;;;;;;;;;5099977;28;20290;-75
2021/05/14 13:32:08;;;;;;;13.33;12.17;;;;;;;;;;5096670;28;20227;-73
2021/05/14 13:34:53;;;;;;;8.20;7.50;;;;;;;;;;5092264;28;20214;-76
2021/05/14 13:37:37;;;;;;;8.07;7.37;;;;;;;;;;5095329;28;20283;-69
2021/05/14 13:40:21;;;;;;;9.70;8.90;;;;;;;;;;5090440;28;20722;-69
2021/05/14 13:43:06;;;;;;;6.80;6.27;;;;;;;;;;5099455;28;20257;-69
2021/05/14 13:45:50;;;;;;;6.80;6.30;;;;;;;;;;5104057;28;20198;-69
2021/05/14 13:48:36;;;;;;;7.03;6.40;;;;;;;;;;5093574;28;20204;-73
2021/05/14 13:51:21;;;;;;;8.10;7.40;;;;;;;;;;5093708;28;20234;-71
2021/05/14 13:54:05;;;;;;;9.10;8.30;;;;;;;;;;5109186;28;20281;-71
2021/05/14 13:56:49;;;;;;;9.80;9.00;;;;;;;;;;5090045;28;20419;-70
2021/05/14 13:59:34;;;;;;;9.07;8.27;;;;;;;;;;5094988;28;20416;-76
2021/05/14 14:02:18;;;;;;;8.93;8.13;;;;;;;;;;5104304;28;20810;-77
2021/05/14 14:05:05;;;;;;;9.60;8.80;;;;;;;;;;5097422;28;20571;-78
2021/05/14 14:07:49;;;;;;;8.50;7.80;;;;;;;;;;5094395;28;20211;-76
2021/05/14 14:10:33;;;;;;;9.17;8.37;;;;;;;;;;5093400;28;20314;-77
2021/05/14 14:13:18;;;;;;;8.03;7.43;;;;;;;;;;5094649;28;20269;-76
2021/05/14 14:16:02;;;;;;;10.13;9.23;;;;;;;;;;5093664;28;20231;-77
2021/05/14 14:18:47;;;;;;;8.73;8.03;;;;;;;;;;5094152;28;20728;-76
2021/05/14 14:21:32;;;;;;;9.27;8.57;;;;;;;;;;5093391;28;20238;-78
2021/05/14 14:24:17;;;;;;;9.03;8.13;;;;;;;;;;5093748;28;20250;-77
2021/05/14 14:27:01;;;;;;;8.47;7.67;;;;;;;;;;5094330;28;20203;-77
2021/05/14 14:29:47;;;;;;;9.20;8.37;;;;;;;;;;5093318;28;20263;-76
2021/05/14 14:32:31;;;;;;;9.60;8.80;;;;;;;;;;5094241;28;20674;-78
2021/05/14 14:35:16;;;;;;;9.10;8.40;;;;;;;;;;5093639;28;20683;-76
2021/05/14 14:38:01;;;;;;;11.20;10.30;;;;;;;;;;5093601;28;20432;-75
2021/05/14 14:40:46;;;;;;;9.90;9.00;;;;;;;;;;5092999;28;20219;-76
2021/05/14 14:43:30;;;;;;;9.03;8.33;;;;;;;;;;5093665;28;20246;-77
2021/05/14 14:46:15;;;;;;;11.07;10.10;;;;;;;;;;5092232;28;20476;-77
2021/05/14 14:48:59;;;;;;;10.03;9.23;;;;;;;;;;5093604;28;20200;-76
2021/05/14 14:51:44;;;;;;;10.67;9.77;;;;;;;;;;5093555;28;20685;-80
2021/05/14 14:54:29;;;;;;;9.43;8.57;;;;;;;;;;5093432;28;20254;-79
2021/05/14 14:57:14;;;;;;;6.03;5.53;;;;;;;;;;5093010;28;20236;-76
2021/05/14 14:59:59;;;;;;;6.40;5.90;;;;;;;;;;5092449;28;20230;-76
2021/05/14 15:02:44;;;;;;;8.00;7.30;;;;;;;;;;5093325;28;20266;-76
2021/05/14 15:05:29;;;;;;;8.23;7.43;;;;;;;;;;5093169;28;20643;-78
2021/05/14 15:08:13;;;;;;;8.00;7.03;;;;;;;;;;5093220;28;20200;-76
2021/05/14 15:11:02;;;;;;;7.30;6.60;;;;;;;;;;5092342;28;20705;-77
2021/05/14 15:13:46;;;;;;;7.20;6.70;;;;;;;;;;5093061;28;20319;-78
2021/05/14 15:16:30;;;;;;;7.60;6.90;;;;;;;;;;5093175;28;20232;-76
2021/05/14 15:19:15;;;;;;;7.30;6.63;;;;;;;;;;5092661;28;20214;-75
2021/05/14 15:21:59;;;;;;;7.23;6.63;;;;;;;;;;5092969;28;20200;-75
2021/05/14 15:24:44;;;;;;;8.20;7.50;;;;;;;;;;5092575;28;20250;-75
2021/05/14 15:27:29;;;;;;;6.80;5.43;;;;;;;;;;5092609;28;20224;-75
2021/05/14 15:30:16;;;;;;;5.40;4.63;;;;;;;;;;5092087;28;20627;-77
2021/05/14 15:33:00;;;;;;;5.20;4.70;;;;;;;;;;5091895;28;20411;-76
2021/05/14 15:35:45;;;;;;;6.00;5.40;;;;;;;;;;5095864;28;20679;-79
2021/05/14 15:38:30;;;;;;;8.10;6.13;;;;;;;;;;5113326;28;20288;-77
2021/05/14 15:41:15;;;;;;;5.00;4.60;;;;;;;;;;5113038;28;20250;-77
2021/05/14 15:44:00;;;;;;;6.90;6.30;;;;;;;;;;5112913;28;20678;-77
2021/05/14 15:46:44;;;;;;;7.40;6.70;;;;;;;;;;5112780;28;20613;-77
2021/05/14 15:49:29;;;;;;;8.57;7.00;;;;;;;;;;5112478;28;20248;-82
2021/05/14 15:52:13;;;;;;;8.07;6.73;;;;;;;;;;5112821;28;20199;-78
2021/05/14 15:54:57;;;;;;;10.07;7.37;;;;;;;;;;5112689;28;20619;-77
2021/05/14 15:57:42;;;;;;;7.90;6.87;;;;;;;;;;5112655;28;20223;-79
2021/05/14 16:00:27;;;;;;;6.60;6.03;;;;;;;;;;5112428;28;20219;-77
2021/05/14 16:03:12;;;;;;;7.50;6.70;;;;;;;;;;5112292;28;20765;-77
2021/05/14 16:05:56;;;;;;;8.13;7.40;;;;;;;;;;5112869;28;20198;-79
2021/05/14 16:08:41;;;;;;;7.20;6.50;;;;;;;;;;5112470;28;20274;-77